createdAt,value
2023-05-20T00:01:21.724Z,0
2023-05-20T00:03:01.439Z,0
2023-05-20T00:04:41.267Z,0
2023-05-20T00:06:21.120Z,0
2023-05-20T00:08:00.798Z,0.02
2023-05-20T00:09:40.555Z,0
2023-05-20T00:11:20.295Z,0
2023-05-20T00:12:59.933Z,0
2023-05-20T00:14:39.827Z,0
2023-05-20T00:16:19.528Z,0
2023-05-20T00:17:59.352Z,0
2023-05-20T00:19:39.071Z,0
2023-05-20T00:21:18.871Z,0
2023-05-20T00:22:58.756Z,0
2023-05-20T00:24:38.450Z,0.01
2023-05-20T00:26:18.117Z,0.01
2023-05-20T00:27:57.936Z,0.01
2023-05-20T00:29:37.711Z,0.01
2023-05-20T00:31:17.510Z,0.01
2023-05-20T00:32:57.220Z,0.01
2023-05-20T00:34:36.853Z,0.01
2023-05-20T00:36:16.588Z,0.01
2023-05-20T00:37:56.527Z,0.01
2023-05-20T00:39:36.287Z,0.02
2023-05-20T00:41:16.021Z,0.02
2023-05-20T00:42:55.768Z,0.02
2023-05-20T00:44:35.546Z,0.02
2023-05-20T00:46:15.302Z,0.02
2023-05-20T00:47:55.066Z,0.02
2023-05-20T00:49:34.836Z,0.02
2023-05-20T00:51:14.594Z,0.02
2023-05-20T00:52:54.369Z,0.02
2023-05-20T00:54:34.138Z,0.02
2023-05-20T00:56:13.946Z,0.02
2023-05-20T00:57:53.656Z,0.02
2023-05-20T00:59:33.419Z,0.02
2023-05-20T01:01:13.190Z,0.02
2023-05-20T01:02:52.964Z,0.02
2023-05-20T01:04:32.751Z,0.02
2023-05-20T01:06:12.620Z,0.02
2023-05-20T01:07:52.358Z,0.02
2023-05-20T01:09:32.024Z,0.02
2023-05-20T01:11:11.799Z,0.02
2023-05-20T01:12:51.595Z,0.02
2023-05-20T01:14:31.304Z,0.02
2023-05-20T01:16:11.185Z,0.02
2023-05-20T01:17:50.924Z,0.01
2023-05-20T01:19:30.783Z,0.03
2023-05-20T01:21:10.460Z,0.03
2023-05-20T01:22:50.284Z,0.03
2023-05-20T01:24:29.963Z,0.03
2023-05-20T01:26:09.854Z,0.03
2023-05-20T01:27:49.401Z,0.03
2023-05-20T01:29:29.304Z,0.03
2023-05-20T01:31:09.022Z,0.04
2023-05-20T01:32:48.875Z,0.04
2023-05-20T01:34:28.502Z,0.06
2023-05-20T01:36:08.365Z,0.06
2023-05-20T01:37:48.102Z,0.07
2023-05-20T01:39:27.882Z,0.07
2023-05-20T01:41:07.613Z,0.09
2023-05-20T01:42:47.503Z,0.09
2023-05-20T01:44:27.207Z,0.11
2023-05-20T01:46:07.056Z,0.13
2023-05-20T01:47:46.859Z,0.13
2023-05-20T01:49:26.530Z,0.15
2023-05-20T01:51:06.383Z,0.19
2023-05-20T01:52:46.010Z,0.21
2023-05-20T01:54:25.825Z,0.25
2023-05-20T01:56:05.614Z,0.29
2023-05-20T01:57:45.464Z,0.33
2023-05-20T01:59:25.230Z,0.37
2023-05-20T02:01:04.989Z,0.43
2023-05-20T02:02:44.770Z,0.5
2023-05-20T02:04:24.515Z,0.58
2023-05-20T02:06:04.223Z,0.67
2023-05-20T02:07:44.066Z,0.78
2023-05-20T02:09:23.800Z,0.88
2023-05-20T02:11:03.632Z,1.01
2023-05-20T02:12:43.362Z,1.19
2023-05-20T02:14:23.154Z,1.37
2023-05-20T02:16:02.815Z,1.55
2023-05-20T02:17:42.427Z,1.8
2023-05-20T02:19:22.403Z,2.08
2023-05-20T02:21:02.131Z,2.41
2023-05-20T02:22:41.926Z,2.78
2023-05-20T02:24:21.590Z,3.21
2023-05-20T02:26:01.452Z,3.72
2023-05-20T02:27:41.254Z,4.42
2023-05-20T02:29:20.935Z,5.34
2023-05-20T02:31:00.714Z,6.47
2023-05-20T02:32:40.374Z,7.7
2023-05-20T02:34:20.221Z,9.18
2023-05-20T02:35:59.843Z,10.74
2023-05-20T02:37:39.779Z,12.28
2023-05-20T02:39:19.515Z,12.62
2023-05-20T02:40:59.448Z,12.65
2023-05-20T02:42:39.057Z,12.67
2023-05-20T02:44:18.990Z,12.69
2023-05-20T02:45:58.685Z,12.69
2023-05-20T02:47:38.484Z,12.71
2023-05-20T02:49:18.077Z,12.71
2023-05-20T02:50:58.110Z,12.71
2023-05-20T02:52:37.756Z,12.72
2023-05-20T02:54:17.565Z,12.73
2023-05-20T02:55:57.305Z,12.73
2023-05-20T02:57:36.938Z,12.74
2023-05-20T02:59:16.830Z,12.75
2023-05-20T03:00:56.514Z,12.75
2023-05-20T03:02:36.312Z,12.76
2023-05-20T03:04:16.095Z,12.76
2023-05-20T03:05:55.884Z,12.77
2023-05-20T03:07:35.658Z,12.77
2023-05-20T03:09:15.401Z,12.77
2023-05-20T03:10:55.112Z,12.78
2023-05-20T03:12:34.918Z,12.79
2023-05-20T03:14:14.729Z,12.79
2023-05-20T03:15:54.488Z,12.81
2023-05-20T03:17:34.159Z,12.82
2023-05-20T03:19:13.938Z,12.83
2023-05-20T03:20:53.612Z,12.84
2023-05-20T03:22:33.485Z,12.85
2023-05-20T03:24:13.268Z,12.86
2023-05-20T03:25:53.053Z,12.86
2023-05-20T03:27:32.904Z,12.88
2023-05-20T03:29:12.629Z,12.9
2023-05-20T03:30:52.397Z,29.46
2023-05-20T03:32:32.107Z,12.8
2023-05-20T03:34:11.817Z,14.26
2023-05-20T03:35:51.544Z,20.94
2023-05-20T03:37:31.348Z,21.79
2023-05-20T03:39:11.085Z,15.32
2023-05-20T03:40:51.047Z,14.96
2023-05-20T03:42:30.642Z,14.9
2023-05-20T03:44:10.652Z,14.94
2023-05-20T03:45:50.161Z,14.91
2023-05-20T03:47:29.934Z,15.45
2023-05-20T03:49:09.726Z,14
2023-05-20T03:50:49.522Z,13.99
2023-05-20T03:52:29.207Z,13.99
2023-05-20T03:54:09.163Z,14.01
2023-05-20T03:55:48.906Z,14.01
2023-05-20T03:57:28.679Z,14.01
2023-05-20T03:59:08.404Z,14.02
2023-05-20T04:00:48.227Z,13.99
2023-05-20T04:02:27.962Z,14.01
2023-05-20T04:04:07.677Z,14.03
2023-05-20T04:05:47.432Z,14.05
2023-05-20T04:07:27.106Z,14.03
2023-05-20T04:09:07.106Z,14.05
2023-05-20T04:10:46.744Z,14.07
2023-05-20T04:12:26.566Z,14.07
2023-05-20T04:14:06.346Z,14.07
2023-05-20T04:15:46.077Z,14.11
2023-05-20T04:17:25.836Z,14.13
2023-05-20T04:19:05.588Z,14.14
2023-05-20T04:20:45.382Z,14.17
2023-05-20T04:22:25.192Z,14.21
2023-05-20T04:24:04.945Z,14.19
2023-05-20T04:25:44.552Z,14.22
2023-05-20T04:27:24.482Z,14.25
2023-05-20T04:29:04.265Z,14.29
2023-05-20T04:30:43.999Z,14.29
2023-05-20T04:32:23.609Z,14.32
2023-05-20T04:34:03.491Z,14.35
2023-05-20T04:35:43.236Z,14.4
2023-05-20T04:37:23.023Z,14.39
2023-05-20T04:39:02.780Z,14.4
2023-05-20T04:40:42.538Z,14.39
2023-05-20T04:42:22.325Z,14.42
2023-05-20T04:44:02.084Z,14.4
2023-05-20T04:45:41.830Z,14.42
2023-05-20T04:47:21.598Z,29.2
2023-05-20T04:49:01.372Z,14.38
2023-05-20T04:50:41.122Z,14.36
2023-05-20T04:52:20.880Z,14.36
2023-05-20T04:54:00.650Z,14.33
2023-05-20T04:55:40.407Z,14.37
2023-05-20T04:57:20.182Z,14.36
2023-05-20T04:58:59.939Z,14.35
2023-05-20T05:00:39.710Z,14.4
2023-05-20T05:02:19.477Z,14.44
2023-05-20T05:03:59.371Z,14.46
2023-05-20T05:05:39.122Z,14.47
2023-05-20T05:07:18.898Z,14.51
2023-05-20T05:08:58.664Z,14.47
2023-05-20T05:10:38.444Z,14.52
2023-05-20T05:12:18.210Z,14.52
2023-05-20T05:13:57.952Z,14.53
2023-05-20T05:15:37.723Z,14.58
2023-05-20T05:17:17.478Z,14.59
2023-05-20T05:18:57.248Z,14.66
2023-05-20T05:20:37.007Z,14.69
2023-05-20T05:22:16.797Z,14.71
2023-05-20T05:23:56.549Z,14.74
2023-05-20T05:25:36.316Z,14.79
2023-05-20T05:27:16.097Z,14.79
2023-05-20T05:28:55.851Z,14.83
2023-05-20T05:30:35.615Z,14.87
2023-05-20T05:32:15.382Z,14.96
2023-05-20T05:33:55.130Z,15.05
2023-05-20T05:35:34.889Z,15.13
2023-05-20T05:37:14.651Z,15.15
2023-05-20T05:38:54.523Z,15.19
2023-05-20T05:40:34.301Z,15.24
2023-05-20T05:42:14.049Z,15.29
2023-05-20T05:43:53.813Z,15.35
2023-05-20T05:45:33.586Z,15.4
2023-05-20T05:47:13.341Z,15.44
2023-05-20T05:48:53.117Z,16.62
2023-05-20T05:50:32.893Z,15.62
2023-05-20T05:52:12.647Z,15.62
2023-05-20T05:53:52.394Z,15.64
2023-05-20T05:55:32.186Z,15.63
2023-05-20T05:57:11.946Z,15.65
2023-05-20T05:58:51.676Z,15.67
2023-05-20T06:00:31.448Z,15.7
2023-05-20T06:02:11.245Z,15.8
2023-05-20T06:03:50.985Z,15.91
2023-05-20T06:05:30.737Z,15.99
2023-05-20T06:07:10.531Z,16.02
2023-05-20T06:08:50.270Z,16.06
2023-05-20T06:10:30.192Z,16.08
2023-05-20T06:12:09.967Z,16.02
2023-05-20T06:13:49.709Z,16.04
2023-05-20T06:15:29.492Z,16.04
2023-05-20T06:17:09.237Z,16.01
2023-05-20T06:18:49.013Z,15.95
2023-05-20T06:20:28.767Z,15.9
2023-05-20T06:22:08.532Z,15.85
2023-05-20T06:23:48.307Z,15.8
2023-05-20T06:25:28.048Z,15.83
2023-05-20T06:27:07.835Z,15.89
2023-05-20T06:28:47.601Z,15.73
2023-05-20T06:30:27.358Z,15.7
2023-05-20T06:32:07.128Z,15.71
2023-05-20T06:33:46.883Z,15.75
2023-05-20T06:35:26.639Z,15.8
2023-05-20T06:37:06.410Z,15.95
2023-05-20T06:38:46.172Z,16.01
2023-05-20T06:40:25.924Z,16.27
2023-05-20T06:42:05.715Z,44.74
2023-05-20T06:43:45.466Z,45.4
2023-05-20T06:45:25.348Z,45.53
2023-05-20T06:47:05.115Z,45.5
2023-05-20T06:48:44.892Z,45.01
2023-05-20T06:50:24.665Z,45.08
2023-05-20T06:52:04.437Z,45.5
2023-05-20T06:53:44.191Z,45.51
2023-05-20T06:55:23.937Z,45.37
2023-05-20T06:57:03.715Z,45.33
2023-05-20T06:58:43.486Z,44.9
2023-05-20T07:00:23.242Z,44.76
2023-05-20T07:02:03.006Z,44.63
2023-05-20T07:03:42.769Z,44.81
2023-05-20T07:05:22.532Z,44.75
2023-05-20T07:07:02.301Z,44.58
2023-05-20T07:08:42.046Z,44.35
2023-05-20T07:10:21.821Z,44.35
2023-05-20T07:12:01.573Z,44.32
2023-05-20T07:13:41.353Z,44.32
2023-05-20T07:15:21.121Z,44.25
2023-05-20T07:17:00.868Z,44.31
2023-05-20T07:18:40.688Z,44.38
2023-05-20T07:20:20.464Z,44.37
2023-05-20T07:22:00.218Z,44.19
2023-05-20T07:23:39.976Z,44.2
2023-05-20T07:25:19.763Z,44.39
2023-05-20T07:26:59.511Z,44.57
2023-05-20T07:28:39.299Z,44.75
2023-05-20T07:30:19.034Z,44.94
2023-05-20T07:31:58.866Z,45.15
2023-05-20T07:33:38.625Z,45.42
2023-05-20T07:35:18.384Z,45.51
2023-05-20T07:36:58.141Z,45.49
2023-05-20T07:38:37.913Z,45.52
2023-05-20T07:40:17.687Z,45.58
2023-05-20T07:41:57.439Z,45.73
2023-05-20T07:43:37.204Z,45.73
2023-05-20T07:45:17.000Z,45.76
2023-05-20T07:46:56.775Z,45.69
2023-05-20T07:48:36.548Z,45.59
2023-05-20T07:50:16.317Z,45.7
2023-05-20T07:51:56.081Z,45.93
2023-05-20T07:53:35.822Z,46.11
2023-05-20T07:55:15.600Z,46.18
2023-05-20T07:56:55.355Z,46.2
2023-05-20T07:58:35.183Z,46.18
2023-05-20T08:00:14.934Z,46.07
2023-05-20T08:01:54.723Z,46.11
2023-05-20T08:03:34.477Z,46.42
2023-05-20T08:05:14.250Z,46.35
2023-05-20T08:06:54.011Z,46.15
2023-05-20T08:08:33.759Z,45.97
2023-05-20T08:10:13.521Z,45.83
2023-05-20T08:11:53.349Z,45.69
2023-05-20T08:13:33.124Z,45.59
2023-05-20T08:15:12.889Z,45.75
2023-05-20T08:16:52.651Z,45.71
2023-05-20T08:18:32.406Z,45.76
2023-05-20T08:20:12.166Z,45.81
2023-05-20T08:21:51.926Z,45.95
2023-05-20T08:23:31.706Z,45.99
2023-05-20T08:25:11.466Z,46.13
2023-05-20T08:26:51.359Z,46.14
2023-05-20T08:28:31.109Z,46.13
2023-05-20T08:30:10.923Z,45.96
2023-05-20T08:31:50.647Z,45.89
2023-05-20T08:33:30.406Z,45.88
2023-05-20T08:35:10.175Z,45.66
2023-05-20T08:36:49.925Z,45.17
2023-05-20T08:38:29.711Z,44.64
2023-05-20T08:40:09.477Z,44.67
2023-05-20T08:41:49.246Z,45.4
2023-05-20T08:43:28.981Z,45.72
2023-05-20T08:45:08.759Z,46.22
2023-05-20T08:46:48.529Z,45.66
2023-05-20T08:48:28.299Z,45.85
2023-05-20T08:50:08.054Z,46.13
2023-05-20T08:51:47.823Z,45.98
2023-05-20T08:53:27.579Z,46.33
2023-05-20T08:55:07.375Z,46.11
2023-05-20T08:56:47.118Z,45.94
2023-05-20T08:58:26.881Z,45.98
2023-05-20T09:00:06.685Z,46.09
2023-05-20T09:01:46.471Z,46.16
2023-05-20T09:03:26.225Z,45.76
2023-05-20T09:05:05.976Z,45.43
2023-05-20T09:06:45.743Z,45.35
2023-05-20T09:08:25.511Z,45.46
2023-05-20T09:10:05.263Z,45.69
2023-05-20T09:11:45.035Z,45.33
2023-05-20T09:13:24.808Z,45.04
2023-05-20T09:15:04.682Z,45.31
2023-05-20T09:16:44.457Z,45.59
2023-05-20T09:18:24.220Z,45.66
2023-05-20T09:20:03.964Z,46.16
2023-05-20T09:21:43.728Z,46.41
2023-05-20T09:23:23.499Z,45.96
2023-05-20T09:25:03.287Z,46.19
2023-05-20T09:26:43.044Z,46.16
2023-05-20T09:28:22.785Z,46.23
2023-05-20T09:30:02.548Z,45.92
2023-05-20T09:31:42.318Z,45.71
2023-05-20T09:33:22.073Z,45.45
2023-05-20T09:35:01.870Z,45.66
2023-05-20T09:36:41.619Z,45.7
2023-05-20T09:38:21.359Z,45.26
2023-05-20T09:40:01.161Z,45.48
2023-05-20T09:41:40.889Z,45.53
2023-05-20T09:43:20.674Z,45.14
2023-05-20T09:45:00.531Z,45.24
2023-05-20T09:46:40.310Z,45.15
2023-05-20T09:48:20.079Z,45.2
2023-05-20T09:49:59.842Z,45.34
2023-05-20T09:51:39.600Z,45.77
2023-05-20T09:53:19.365Z,45.9
2023-05-20T09:54:59.123Z,45.81
2023-05-20T09:56:38.910Z,46
2023-05-20T09:58:18.665Z,45.79
2023-05-20T09:59:58.416Z,45.74
2023-05-20T10:01:38.189Z,45.62
2023-05-20T10:03:17.945Z,45.86
2023-05-20T10:04:57.718Z,45.96
2023-05-20T10:06:37.477Z,46.23
2023-05-20T10:08:17.240Z,46.19
2023-05-20T10:09:57.008Z,46.1
2023-05-20T10:11:36.781Z,46.43
2023-05-20T10:13:16.603Z,47.01
2023-05-20T10:14:56.356Z,46.59
2023-05-20T10:16:36.143Z,46.13
2023-05-20T10:18:15.876Z,45.7
2023-05-20T10:19:55.639Z,45.64
2023-05-20T10:21:35.412Z,45.27
2023-05-20T10:23:15.168Z,45.43
2023-05-20T10:24:54.950Z,46.18
2023-05-20T10:26:34.699Z,46.55
2023-05-20T10:28:14.464Z,47.05
2023-05-20T10:29:54.361Z,46.72
2023-05-20T10:31:34.145Z,46.24
2023-05-20T10:33:13.902Z,45.86
2023-05-20T10:34:53.657Z,44.8
2023-05-20T10:36:33.484Z,44.73
2023-05-20T10:38:13.291Z,44.98
2023-05-20T10:39:52.954Z,45.28
2023-05-20T10:41:32.720Z,45.7
2023-05-20T10:43:12.474Z,46.09
2023-05-20T10:44:52.352Z,46.16
2023-05-20T10:46:32.208Z,46.19
2023-05-20T10:48:11.892Z,45.85
2023-05-20T10:49:51.663Z,45.57
2023-05-20T10:51:31.465Z,45.54
2023-05-20T10:53:11.300Z,46.03
2023-05-20T10:54:50.918Z,46.6
2023-05-20T10:56:30.785Z,46.47
2023-05-20T10:58:10.464Z,46.23
2023-05-20T10:59:50.353Z,46.02
2023-05-20T11:01:30.060Z,45.59
2023-05-20T11:03:09.889Z,45.5
2023-05-20T11:04:49.670Z,45.88
2023-05-20T11:06:29.484Z,46.26
2023-05-20T11:08:09.243Z,46.17
2023-05-20T11:09:48.917Z,46.38
2023-05-20T11:11:28.672Z,46.36
2023-05-20T11:13:08.635Z,46.32
2023-05-20T11:14:48.129Z,46.53
2023-05-20T11:16:27.923Z,46.12
2023-05-20T11:18:07.846Z,45.92
2023-05-20T11:19:47.512Z,46.02
2023-05-20T11:21:27.327Z,46.61
2023-05-20T11:23:07.119Z,45.95
2023-05-20T11:24:46.722Z,47.46
2023-05-20T11:26:26.664Z,46.67
2023-05-20T11:28:06.256Z,45.71
2023-05-20T11:29:46.028Z,46.07
2023-05-20T11:31:25.970Z,47.11
2023-05-20T11:33:05.602Z,46.32
2023-05-20T11:34:45.385Z,46.23
2023-05-20T11:36:25.192Z,46.47
2023-05-20T11:38:04.847Z,46.43
2023-05-20T11:39:44.764Z,46.69
2023-05-20T11:41:24.579Z,46.73
2023-05-20T11:43:04.414Z,46.58
2023-05-20T11:44:44.261Z,46.64
2023-05-20T11:46:23.963Z,45.41
2023-05-20T11:48:03.714Z,45.46
2023-05-20T11:49:43.429Z,45.45
2023-05-20T11:51:23.162Z,45.44
2023-05-20T11:53:02.908Z,45.55
2023-05-20T11:54:42.716Z,45.71
2023-05-20T11:56:22.366Z,45.77
2023-05-20T11:58:02.126Z,46.55
2023-05-20T11:59:41.916Z,45.89
2023-05-20T12:01:21.664Z,46.33
2023-05-20T12:03:01.427Z,47.43
2023-05-20T12:04:41.203Z,46.57
2023-05-20T12:06:20.954Z,47.83
2023-05-20T12:08:00.714Z,46.12
2023-05-20T12:09:40.487Z,46.66
2023-05-20T12:11:20.384Z,45.52
2023-05-20T12:13:00.263Z,47.08
2023-05-20T12:14:39.970Z,46.8
2023-05-20T12:16:19.837Z,45.24
2023-05-20T12:17:59.659Z,44.48
2023-05-20T12:19:39.211Z,46.96
2023-05-20T12:21:19.092Z,46.48
2023-05-20T12:22:58.908Z,46.27
2023-05-20T12:24:38.555Z,43.88
2023-05-20T12:26:18.260Z,44.1
2023-05-20T12:27:58.187Z,44.67
2023-05-20T12:29:37.893Z,45.72
2023-05-20T12:31:17.659Z,45.79
2023-05-20T12:32:57.486Z,46.83
2023-05-20T12:34:37.252Z,46.63
2023-05-20T12:36:16.963Z,46.48
2023-05-20T12:37:56.609Z,46.33
2023-05-20T12:39:36.472Z,46.14
2023-05-20T12:41:16.316Z,46.17
2023-05-20T12:42:56.003Z,45.87
2023-05-20T12:44:35.809Z,44.67
2023-05-20T12:46:15.672Z,46.1
2023-05-20T12:47:55.346Z,44.26
2023-05-20T12:49:34.951Z,44.27
2023-05-20T12:51:14.901Z,44.76
2023-05-20T12:52:54.669Z,46.54
2023-05-20T12:54:34.436Z,45.62
2023-05-20T12:56:14.154Z,47.06
2023-05-20T12:57:53.926Z,46.68
2023-05-20T12:59:33.772Z,46.4
2023-05-20T13:01:13.485Z,46.14
2023-05-20T13:02:53.210Z,45.79
2023-05-20T13:04:33.163Z,44.35
2023-05-20T13:06:12.892Z,46.02
2023-05-20T13:07:52.670Z,45.87
2023-05-20T13:09:32.419Z,45.66
2023-05-20T13:11:12.178Z,45.65
2023-05-20T13:12:51.844Z,45.59
2023-05-20T13:14:31.707Z,45.62
2023-05-20T13:16:11.335Z,45.81
2023-05-20T13:17:51.270Z,45.8
2023-05-20T13:19:30.876Z,45.68
2023-05-20T13:21:10.609Z,45.81
2023-05-20T13:22:50.381Z,45.86
2023-05-20T13:24:30.185Z,43.88
2023-05-20T13:26:09.915Z,43.26
2023-05-20T13:27:49.699Z,43.99
2023-05-20T13:29:29.577Z,44.05
2023-05-20T13:31:09.361Z,44.73
2023-05-20T13:32:49.251Z,47.08
2023-05-20T13:34:28.983Z,46.73
2023-05-20T13:36:08.714Z,46.68
2023-05-20T13:37:48.524Z,46.43
2023-05-20T13:39:28.344Z,46.27
2023-05-20T13:41:07.988Z,45.97
2023-05-20T13:42:47.822Z,45.88
2023-05-20T13:44:27.462Z,46.24
2023-05-20T13:46:07.319Z,46.27
2023-05-20T13:47:47.132Z,46.3
2023-05-20T13:49:26.864Z,46.33
2023-05-20T13:51:06.525Z,46.17
2023-05-20T13:52:46.447Z,46.08
2023-05-20T13:54:26.106Z,44.7
2023-05-20T13:56:05.806Z,46.03
2023-05-20T13:57:45.743Z,43.91
2023-05-20T13:59:25.344Z,43.88
2023-05-20T14:01:05.110Z,46.22
2023-05-20T14:02:45.055Z,46.54
2023-05-20T14:04:24.849Z,46.38
2023-05-20T14:06:04.653Z,46.31
2023-05-20T14:07:44.306Z,46.13
2023-05-20T14:09:24.243Z,45.98
2023-05-20T14:11:03.831Z,45.9
2023-05-20T14:12:43.578Z,45.84
2023-05-20T14:14:23.505Z,45.82
2023-05-20T14:16:03.165Z,45.77
2023-05-20T14:17:42.860Z,45.76
2023-05-20T14:19:22.623Z,45.64
2023-05-20T14:21:02.392Z,45.71
2023-05-20T14:22:42.231Z,45.58
2023-05-20T14:24:22.038Z,45.6
2023-05-20T14:26:01.723Z,45.64
2023-05-20T14:27:41.584Z,45.84
2023-05-20T14:29:21.249Z,46.16
2023-05-20T14:31:01.116Z,46.22
2023-05-20T14:32:40.734Z,46.13
2023-05-20T14:34:20.614Z,46.03
2023-05-20T14:36:00.474Z,45.94
2023-05-20T14:37:40.162Z,45.91
2023-05-20T14:39:20.099Z,45.86
2023-05-20T14:40:59.768Z,45.84
2023-05-20T14:42:39.488Z,45.85
2023-05-20T14:44:19.203Z,45.96
2023-05-20T14:45:58.968Z,45.91
2023-05-20T14:47:38.732Z,46.12
2023-05-20T14:49:18.489Z,46.14
2023-05-20T14:50:58.265Z,46.19
2023-05-20T14:52:38.022Z,46.03
2023-05-20T14:54:17.841Z,45.98
2023-05-20T14:55:57.553Z,45.94
2023-05-20T14:57:37.402Z,45.95
2023-05-20T14:59:17.202Z,46.03
2023-05-20T15:00:56.854Z,45.5
2023-05-20T15:02:36.643Z,45.93
2023-05-20T15:04:16.380Z,45.81
2023-05-20T15:05:56.299Z,45.71
2023-05-20T15:07:36.032Z,45.78
2023-05-20T15:09:15.970Z,45.78
2023-05-20T15:10:55.774Z,45.84
2023-05-20T15:12:35.510Z,45.93
2023-05-20T15:14:15.348Z,45.89
2023-05-20T15:15:54.883Z,45.8
2023-05-20T15:17:34.642Z,45.75
2023-05-20T15:19:14.381Z,45.72
2023-05-20T15:20:54.293Z,45.73
2023-05-20T15:22:33.996Z,45.73
2023-05-20T15:24:13.721Z,45.76
2023-05-20T15:25:53.489Z,45.73
2023-05-20T15:27:33.246Z,45.7
2023-05-20T15:29:12.997Z,45.68
2023-05-20T15:30:52.747Z,45.65
2023-05-20T15:32:32.502Z,45.77
2023-05-20T15:34:12.283Z,45.79
2023-05-20T15:35:52.221Z,45.72
2023-05-20T15:37:32.011Z,45.73
2023-05-20T15:39:11.619Z,45.73
2023-05-20T15:40:51.330Z,45.74
2023-05-20T15:42:31.090Z,45.73
2023-05-20T15:44:11.005Z,45.73
2023-05-20T15:45:50.757Z,45.71
2023-05-20T15:47:30.576Z,45.76
2023-05-20T15:49:10.296Z,45.71
2023-05-20T15:50:50.131Z,45.82
2023-05-20T15:52:29.894Z,45.83
2023-05-20T15:54:09.595Z,45.76
2023-05-20T15:55:49.474Z,45.53
2023-05-20T15:57:29.106Z,44.67
2023-05-20T15:59:08.857Z,45.32
2023-05-20T16:00:48.636Z,45.38
2023-05-20T16:02:28.425Z,45.06
2023-05-20T16:04:08.164Z,45.84
2023-05-20T16:05:47.917Z,45.84
2023-05-20T16:07:27.694Z,45.89
2023-05-20T16:09:07.468Z,45.87
2023-05-20T16:10:47.242Z,45.67
2023-05-20T16:12:26.996Z,45.65
2023-05-20T16:14:06.757Z,45.68
2023-05-20T16:15:46.511Z,45.58
2023-05-20T16:17:26.287Z,45.72
2023-05-20T16:19:06.147Z,45.6
2023-05-20T16:20:45.921Z,45.4
2023-05-20T16:22:25.681Z,45.62
2023-05-20T16:24:05.456Z,45.61
2023-05-20T16:25:45.203Z,45.62
2023-05-20T16:27:24.974Z,45.67
2023-05-20T16:29:04.737Z,45.66
2023-05-20T16:30:44.499Z,45.57
2023-05-20T16:32:24.267Z,45.58
2023-05-20T16:34:04.041Z,45.44
2023-05-20T16:35:43.812Z,45.47
2023-05-20T16:37:23.558Z,45.39
2023-05-20T16:39:03.307Z,45.38
2023-05-20T16:40:43.092Z,45.22
2023-05-20T16:42:22.871Z,45.21
2023-05-20T16:44:02.628Z,45.11
2023-05-20T16:45:42.394Z,45.13
2023-05-20T16:47:22.129Z,45.13
2023-05-20T16:49:02.034Z,45.03
2023-05-20T16:50:41.803Z,45.12
2023-05-20T16:52:21.566Z,45.12
2023-05-20T16:54:01.322Z,45.21
2023-05-20T16:55:41.083Z,45.07
2023-05-20T16:57:20.857Z,44.88
2023-05-20T16:59:00.607Z,44.79
2023-05-20T17:00:40.391Z,44.69
2023-05-20T17:02:20.147Z,44.66
2023-05-20T17:03:59.908Z,44.65
2023-05-20T17:05:39.683Z,44.64
2023-05-20T17:07:19.452Z,44.57
2023-05-20T17:08:59.207Z,44.54
2023-05-20T17:10:38.989Z,44.57
2023-05-20T17:12:18.734Z,44.52
2023-05-20T17:13:58.503Z,44.5
2023-05-20T17:15:38.258Z,44.45
2023-05-20T17:17:18.017Z,44.37
2023-05-20T17:18:57.787Z,44.34
2023-05-20T17:20:37.558Z,44.39
2023-05-20T17:22:17.313Z,44.32
2023-05-20T17:23:57.102Z,44.18
2023-05-20T17:25:36.874Z,44.08
2023-05-20T17:27:16.613Z,44
2023-05-20T17:28:56.517Z,43.88
2023-05-20T17:30:36.264Z,43.63
2023-05-20T17:32:16.055Z,43.61
2023-05-20T17:33:55.811Z,43.31
2023-05-20T17:35:35.552Z,43.55
2023-05-20T17:37:15.312Z,43.03
2023-05-20T17:38:55.076Z,42.88
2023-05-20T17:40:34.871Z,42.8
2023-05-20T17:42:14.612Z,42.77
2023-05-20T17:43:54.373Z,42.62
2023-05-20T17:45:34.140Z,41.63
2023-05-20T17:47:13.891Z,42
2023-05-20T17:48:53.677Z,41.64
2023-05-20T17:50:33.432Z,40.65
2023-05-20T17:52:13.202Z,40.54
2023-05-20T17:53:52.967Z,40.54
2023-05-20T17:55:32.734Z,40.75
2023-05-20T17:57:12.533Z,41.04
2023-05-20T17:58:52.318Z,41.37
2023-05-20T18:00:32.074Z,40.95
2023-05-20T18:02:11.830Z,40.9
2023-05-20T18:03:51.617Z,41.08
2023-05-20T18:05:31.373Z,41.09
2023-05-20T18:07:11.135Z,40.93
2023-05-20T18:08:50.914Z,40.97
2023-05-20T18:10:30.711Z,41.01
2023-05-20T18:12:10.467Z,40.98
2023-05-20T18:13:50.245Z,40.98
2023-05-20T18:15:30.012Z,40.56
2023-05-20T18:17:09.784Z,40.22
2023-05-20T18:18:49.537Z,40.13
2023-05-20T18:20:29.290Z,39.82
2023-05-20T18:22:09.055Z,39.54
2023-05-20T18:23:48.811Z,39.07
2023-05-20T18:25:28.576Z,39.02
2023-05-20T18:27:08.475Z,38.3
2023-05-20T18:28:48.241Z,38.03
2023-05-20T18:30:28.005Z,37.74
2023-05-20T18:32:07.761Z,36.89
2023-05-20T18:33:47.523Z,36.03
2023-05-20T18:35:27.281Z,36.08
2023-05-20T18:37:07.044Z,34.97
2023-05-20T18:38:46.854Z,34.33
2023-05-20T18:40:26.566Z,33
2023-05-20T18:42:06.351Z,32.22
2023-05-20T18:43:46.118Z,29.07
2023-05-20T18:45:25.880Z,20.02
2023-05-20T18:47:05.630Z,15.73
2023-05-20T18:48:45.409Z,14.55
2023-05-20T18:50:25.144Z,16.06
2023-05-20T18:52:04.918Z,15.3
2023-05-20T18:53:44.700Z,24.64
2023-05-20T18:55:24.470Z,17.2
2023-05-20T18:57:04.212Z,23.67
2023-05-20T18:58:43.974Z,13.29
2023-05-20T19:00:23.754Z,13.23
2023-05-20T19:02:03.524Z,13.2
2023-05-20T19:03:43.269Z,13.17
2023-05-20T19:05:23.174Z,13.15
2023-05-20T19:07:02.956Z,13.13
2023-05-20T19:08:42.708Z,13.1
2023-05-20T19:10:22.493Z,13.08
2023-05-20T19:12:02.228Z,13.08
2023-05-20T19:13:41.996Z,13.05
2023-05-20T19:15:21.758Z,13.04
2023-05-20T19:17:01.548Z,13.03
2023-05-20T19:18:41.323Z,13
2023-05-20T19:20:21.076Z,13
2023-05-20T19:22:00.820Z,12.97
2023-05-20T19:23:40.584Z,12.96
2023-05-20T19:25:20.342Z,12.95
2023-05-20T19:27:00.107Z,12.94
2023-05-20T19:28:39.877Z,12.9
2023-05-20T19:30:19.628Z,12.88
2023-05-20T19:31:59.395Z,12.86
2023-05-20T19:33:39.162Z,12.69
2023-05-20T19:35:18.940Z,11.36
2023-05-20T19:36:58.690Z,10
2023-05-20T19:38:38.507Z,8.59
2023-05-20T19:40:18.217Z,7.23
2023-05-20T19:41:57.986Z,5.94
2023-05-20T19:43:37.749Z,4.84
2023-05-20T19:45:17.511Z,3.92
2023-05-20T19:46:57.274Z,3.2
2023-05-20T19:48:37.042Z,2.62
2023-05-20T19:50:16.821Z,2.13
2023-05-20T19:51:56.570Z,1.73
2023-05-20T19:53:36.341Z,1.4
2023-05-20T19:55:16.095Z,1.15
2023-05-20T19:56:55.858Z,0.94
2023-05-20T19:58:35.626Z,0.79
2023-05-20T20:00:15.388Z,0.64
2023-05-20T20:01:55.149Z,0.54
2023-05-20T20:03:34.915Z,0.44
2023-05-20T20:05:14.692Z,0.38
2023-05-20T20:06:54.587Z,0.33
2023-05-20T20:08:34.355Z,0.27
2023-05-20T20:10:14.110Z,0.24
2023-05-20T20:11:53.875Z,0.21
2023-05-20T20:13:33.641Z,0.17
2023-05-20T20:15:13.401Z,0.16
2023-05-20T20:16:53.175Z,0.15
2023-05-20T20:18:32.932Z,0.12
2023-05-20T20:20:12.684Z,0.09
2023-05-20T20:21:52.457Z,0.08
2023-05-20T20:23:32.218Z,0.07
2023-05-20T20:25:11.984Z,0.05
2023-05-20T20:26:51.759Z,0.04
2023-05-20T20:28:31.517Z,0.05
2023-05-20T20:30:11.265Z,0.05
2023-05-20T20:31:51.046Z,0.05
2023-05-20T20:33:30.805Z,0.05
2023-05-20T20:35:10.574Z,0.02
2023-05-20T20:36:50.334Z,0.04
2023-05-20T20:38:30.177Z,0.04
2023-05-20T20:40:09.861Z,0.03
2023-05-20T20:41:49.628Z,0.03
2023-05-20T20:43:29.380Z,0.03
2023-05-20T20:45:09.147Z,0.02
2023-05-20T20:46:48.906Z,0.02
2023-05-20T20:48:28.684Z,0.02
2023-05-20T20:50:08.437Z,0
2023-05-20T20:51:48.207Z,0
2023-05-20T20:53:27.986Z,0
2023-05-20T20:55:07.739Z,0
2023-05-20T20:56:47.481Z,0
2023-05-20T20:58:27.270Z,0.01
2023-05-20T21:00:07.029Z,0.01
2023-05-20T21:01:46.791Z,0.01
2023-05-20T21:03:26.560Z,0.01
2023-05-20T21:05:06.329Z,0.01
2023-05-20T21:06:46.149Z,0.01
2023-05-20T21:08:25.907Z,0.01
2023-05-20T21:10:05.683Z,0.01
2023-05-20T21:11:45.434Z,0.01
2023-05-20T21:13:25.189Z,0.01
2023-05-20T21:15:04.955Z,0.01
2023-05-20T21:16:44.718Z,0.01
2023-05-20T21:18:24.480Z,0.01
2023-05-20T21:20:04.252Z,0.01
2023-05-20T21:21:44.041Z,0.01
2023-05-20T21:23:23.784Z,0.01
2023-05-20T21:25:03.533Z,0.01
2023-05-20T21:26:43.301Z,0.01
2023-05-20T21:28:23.070Z,0.01
2023-05-20T21:30:02.825Z,0.01
2023-05-20T21:31:42.592Z,0.01
2023-05-20T21:33:22.474Z,0.01
2023-05-20T21:35:02.231Z,0
2023-05-20T21:36:42.008Z,0
2023-05-20T21:38:21.783Z,0
2023-05-20T21:40:01.540Z,0
2023-05-20T21:41:41.288Z,0
2023-05-20T21:43:21.057Z,0